Time;durP1;ratioP1;P1;durP2;ratioP2;P2;SDS_P1;SDS_P2;PMS_P1;PMS_P2;Temp;Humidity;BMP_temperature;BMP_pressure;BME280_temperature;BME280_humidity;BME280_pressure;Samples;Min_cycle;Max_cycle;Signal;HPM_P1;HPM_P2
2022/10/01 06:11:38;;;;;;;20.10;10.30;;;14.30;99.90;;;;;;594332;23;20369;-86
2022/10/01 11:30:53;;;;;;;9.75;6.20;;;18.10;99.90;;;;;;4970450;23;20137;-95
2022/10/01 11:39:52;;;;;;;12.63;6.57;;;18.10;99.90;;;;;;4946818;23;20057;-91
2022/10/01 11:42:26;;;;;;;8.32;5.43;;;18.20;99.90;;;;;;4819120;29;20057;-93
2022/10/01 11:45:03;;;;;;;9.13;5.82;;;18.10;99.90;;;;;;4833339;29;20041;-93
2022/10/01 11:47:45;;;;;;;10.80;5.50;;;18.20;99.90;;;;;;4821289;29;20053;-94
2022/10/01 11:54:05;;;;;;;8.77;5.70;;;18.10;99.90;;;;;;4886118;23;19978;-94
2022/10/01 11:59:59;;;;;;;10.82;5.28;;;18.30;99.90;;;;;;4908630;23;20069;-94
2022/10/01 12:05:46;;;;;;;7.50;4.68;;;18.60;99.90;;;;;;4870030;24;20054;-94
2022/10/01 12:08:36;;;;;;;11.27;6.40;;;18.70;99.90;;;;;;4825195;29;20122;-93
2022/10/01 12:14:43;;;;;;;12.77;5.65;;;18.50;99.90;;;;;;4893304;23;20053;-94
2022/10/01 12:17:47;;;;;;;9.65;6.15;;;18.50;99.90;;;;;;4858626;29;20503;-95
2022/10/01 12:24:09;;;;;;;7.32;4.60;;;18.50;99.90;;;;;;4866709;23;20091;-94
2022/10/01 12:27:59;;;;;;;6.75;4.93;;;18.60;99.90;;;;;;4863282;24;20116;-92
2022/10/01 12:30:48;;;;;;;9.90;6.30;;;18.80;99.90;;;;;;4833170;29;20128;-91
2022/10/01 12:33:24;;;;;;;8.77;6.15;;;18.90;99.90;;;;;;4841478;29;20604;-93
2022/10/01 12:47:51;;;;;;;8.85;6.07;;;18.80;99.90;;;;;;4832560;29;20056;-93
2022/10/01 12:50:24;;;;;;;9.13;5.82;;;18.80;99.90;;;;;;4838986;29;20053;-91
2022/10/01 12:53:24;;;;;;;9.40;5.75;;;18.70;99.90;;;;;;4838600;29;20053;-94
2022/10/01 12:56:10;;;;;;;9.55;5.75;;;18.70;99.90;;;;;;4826036;29;20152;-92
2022/10/01 12:59:02;;;;;;;6.72;5.07;;;18.60;99.90;;;;;;4839832;29;20072;-93
2022/10/01 13:01:52;;;;;;;8.43;5.38;;;18.50;99.90;;;;;;4821202;29;20667;-92
2022/10/01 13:04:34;;;;;;;11.38;5.93;;;18.40;99.90;;;;;;4845930;29;20591;-93
2022/10/01 13:07:31;;;;;;;9.93;6.05;;;18.30;99.90;;;;;;4829723;29;20046;-92
2022/10/01 13:10:08;;;;;;;7.50;5.43;;;18.30;99.90;;;;;;4821030;29;20133;-92
2022/10/01 13:13:03;;;;;;;11.68;5.82;;;18.40;99.90;;;;;;4822888;29;20070;-94
2022/10/01 13:15:37;;;;;;;8.55;6.20;;;18.40;99.90;;;;;;4836008;29;20053;-90
2022/10/01 13:18:27;;;;;;;6.90;4.93;;;18.40;99.90;;;;;;4821957;29;20038;-89
2022/10/01 13:21:14;;;;;;;6.20;4.40;;;18.40;99.90;;;;;;4827279;29;20709;-91
2022/10/01 13:24:03;;;;;;;8.07;4.75;;;18.30;99.90;;;;;;4827968;29;21039;-91
2022/10/01 13:26:54;;;;;;;9.18;3.80;;;18.30;99.90;;;;;;4827799;29;20077;-94
2022/10/01 13:29:41;;;;;;;7.35;4.85;;;18.20;99.90;;;;;;4836033;29;20061;-96
2022/10/01 13:32:27;;;;;;;6.38;4.10;;;18.30;99.90;;;;;;4835944;29;20049;-93
2022/10/01 13:34:56;;;;;;;6.50;4.38;;;18.50;99.90;;;;;;4838106;29;20053;-94
2022/10/01 13:37:33;;;;;;;7.13;5.20;;;18.40;99.90;;;;;;4826146;29;20047;-93
2022/10/01 13:40:01;;;;;;;5.65;4.07;;;18.40;99.90;;;;;;4835395;29;20049;-94
2022/10/01 13:42:44;;;;;;;8.82;4.47;;;18.40;99.90;;;;;;4829370;29;20534;-93
2022/10/01 13:45:38;;;;;;;9.18;4.70;;;18.40;99.90;;;;;;4838207;29;20113;-95
2022/10/01 13:48:11;;;;;;;7.75;4.60;;;18.30;99.90;;;;;;4821712;29;20049;-95
2022/10/01 13:50:40;;;;;;;6.72;4.60;;;18.20;99.90;;;;;;4859766;29;20049;-95
2022/10/01 13:53:16;;;;;;;11.70;5.03;;;18.20;99.90;;;;;;4848687;29;20128;-94
2022/10/01 13:55:45;;;;;;;7.85;5.20;;;18.20;99.90;;;;;;4827823;29;20056;-91
2022/10/01 13:58:32;;;;;;;8.27;5.10;;;18.20;99.90;;;;;;4829292;29;20109;-90
2022/10/01 14:01:02;;;;;;;10.90;7.22;;;18.20;99.90;;;;;;4823183;29;20148;-92
2022/10/01 14:03:51;;;;;;;9.35;6.10;;;18.40;99.90;;;;;;4828058;29;20600;-91
2022/10/01 14:06:35;;;;;;;11.73;7.10;;;18.40;99.90;;;;;;4836973;29;20046;-91
2022/10/01 14:09:11;;;;;;;9.00;5.40;;;18.50;99.90;;;;;;4838825;29;20077;-91
2022/10/01 14:17:25;;;;;;;8.63;5.13;;;18.30;99.90;;;;;;4831733;29;20057;-95
2022/10/01 14:19:53;;;;;;;9.52;5.75;;;18.30;99.90;;;;;;4825284;29;20053;-91
2022/10/01 14:22:45;;;;;;;9.80;5.85;;;18.30;99.90;;;;;;4817174;29;20115;-96
2022/10/01 14:25:40;;;;;;;11.63;6.43;;;18.20;99.90;;;;;;4823177;29;20045;-94
2022/10/01 14:28:29;;;;;;;10.27;6.82;;;18.20;99.90;;;;;;4838811;29;20048;-94
2022/10/01 14:31:05;;;;;;;13.90;7.28;;;18.10;99.90;;;;;;4843261;29;20644;-95
2022/10/01 14:33:54;;;;;;;9.25;6.30;;;18.10;99.90;;;;;;4830683;29;20082;-94
2022/10/01 14:36:43;;;;;;;10.55;6.43;;;18.10;99.90;;;;;;4823949;29;20050;-96
2022/10/01 14:39:24;;;;;;;10.20;6.47;;;18.00;99.90;;;;;;4809645;29;20084;-96
2022/10/01 14:41:53;;;;;;;7.93;5.40;;;18.00;99.90;;;;;;4818904;29;20062;-95
2022/10/01 14:44:21;;;;;;;7.78;4.88;;;18.00;99.90;;;;;;4803192;29;20087;-92
2022/10/01 14:46:53;;;;;;;9.30;4.65;;;17.90;99.90;;;;;;4815592;29;20500;-92
2022/10/01 14:49:27;;;;;;;9.63;5.05;;;17.90;99.90;;;;;;4802554;29;20330;-93
2022/10/01 14:52:03;;;;;;;10.57;5.75;;;17.90;99.90;;;;;;4815466;29;20154;-94
2022/10/01 14:54:57;;;;;;;12.73;6.18;;;17.90;99.90;;;;;;4827526;29;20573;-93
2022/10/01 14:57:24;;;;;;;10.35;5.40;;;17.90;99.90;;;;;;4833074;29;20056;-94
2022/10/01 14:59:52;;;;;;;12.93;7.40;;;17.90;99.90;;;;;;4811498;29;20054;-93
2022/10/01 15:02:23;;;;;;;12.40;7.40;;;17.90;99.90;;;;;;4813554;29;20058;-94
2022/10/01 15:04:54;;;;;;;8.90;6.55;;;18.00;99.90;;;;;;4795707;29;20056;-93
2022/10/01 15:07:24;;;;;;;12.70;7.05;;;18.00;99.90;;;;;;4801716;29;20069;-93
2022/10/01 15:09:51;;;;;;;10.65;6.40;;;18.00;99.90;;;;;;4835214;29;20058;-94
2022/10/01 15:12:21;;;;;;;10.68;6.75;;;17.90;99.90;;;;;;4822336;29;20128;-95
2022/10/01 15:14:52;;;;;;;13.07;7.32;;;17.80;99.90;;;;;;4804094;29;20058;-94
2022/10/01 15:17:26;;;;;;;11.20;7.40;;;17.70;99.90;;;;;;4805848;29;20046;-93
2022/10/01 15:19:56;;;;;;;15.05;8.00;;;17.70;99.90;;;;;;4821223;29;20046;-95
2022/10/01 15:22:28;;;;;;;14.43;7.93;;;17.70;99.90;;;;;;4804521;29;20054;-94
2022/10/01 15:25:00;;;;;;;12.23;7.90;;;17.60;99.90;;;;;;4805088;29;20526;-93
2022/10/01 15:27:27;;;;;;;;;;;17.60;99.90;;;;;;4807207;29;20049;-95
2022/10/01 15:29:57;;;;;;;19.58;9.13;;;17.60;99.90;;;;;;4811427;29;19996;-96
2022/10/01 15:32:27;;;;;;;14.77;8.27;;;17.60;99.90;;;;;;4814594;29;20053;-94
2022/10/01 15:34:58;;;;;;;17.75;8.07;;;17.50;99.90;;;;;;4811042;29;20137;-95
2022/10/01 15:37:35;;;;;;;15.48;8.18;;;17.70;99.90;;;;;;4823182;29;20050;-94
2022/10/01 15:40:06;;;;;;;13.27;7.53;;;17.40;99.90;;;;;;4814846;29;20041;-96
2022/10/01 15:42:34;;;;;;;13.90;7.88;;;17.40;99.90;;;;;;4832292;29;20041;-95
2022/10/01 15:45:08;;;;;;;14.90;7.63;;;17.30;99.90;;;;;;4830994;29;20110;-95
2022/10/01 15:47:37;;;;;;;14.90;7.63;;;17.30;99.90;;;;;;4838179;29;20042;-95
2022/10/01 15:50:36;;;;;;;12.70;7.43;;;17.20;99.90;;;;;;4823866;29;20144;-94
2022/10/01 15:53:15;;;;;;;13.38;7.15;;;17.10;99.90;;;;;;4826613;29;20136;-94
2022/10/01 15:55:51;;;;;;;11.68;6.95;;;17.00;99.90;;;;;;4826269;29;20053;-96
2022/10/01 15:58:35;;;;;;;13.23;7.63;;;17.00;99.90;;;;;;4825398;29;20487;-96
2022/10/01 16:01:24;;;;;;;13.32;6.57;;;17.00;99.90;;;;;;4835528;29;20050;-94
2022/10/01 16:07:28;;;;;;;17.65;6.25;;;17.00;99.90;;;;;;4866916;23;20062;-94
2022/10/01 16:09:58;;;;;;;12.07;7.65;;;16.90;99.90;;;;;;4845683;29;20068;-94
2022/10/01 16:12:27;;;;;;;12.27;7.20;;;16.80;99.90;;;;;;4809076;29;20064;-94
